sensor_id;sensor_type;location;lat;lon;timestamp;P1;durP1;ratioP1;P2;durP2;ratioP2
19406;SDS011;9839;53.364;-1.204;2023-03-26T00:01:08;9.43;;;2.60;;
19406;SDS011;9839;53.364;-1.204;2023-03-26T00:03:41;7.23;;;3.00;;
19406;SDS011;9839;53.364;-1.204;2023-03-26T00:06:10;9.47;;;2.40;;
19406;SDS011;9839;53.364;-1.204;2023-03-26T00:08:37;6.13;;;2.50;;
19406;SDS011;9839;53.364;-1.204;2023-03-26T00:11:04;14.10;;;1.93;;
19406;SDS011;9839;53.364;-1.204;2023-03-26T00:13:31;7.47;;;2.33;;
19406;SDS011;9839;53.364;-1.204;2023-03-26T00:15:57;10.83;;;2.80;;
19406;SDS011;9839;53.364;-1.204;2023-03-26T00:18:23;12.00;;;2.50;;
19406;SDS011;9839;53.364;-1.204;2023-03-26T00:20:54;8.13;;;2.97;;
19406;SDS011;9839;53.364;-1.204;2023-03-26T00:23:20;12.53;;;3.10;;
19406;SDS011;9839;53.364;-1.204;2023-03-26T00:25:46;12.37;;;3.00;;
19406;SDS011;9839;53.364;-1.204;2023-03-26T00:28:15;10.00;;;3.17;;
19406;SDS011;9839;53.364;-1.204;2023-03-26T00:30:41;11.40;;;3.47;;
19406;SDS011;9839;53.364;-1.204;2023-03-26T00:33:07;19.37;;;3.43;;
19406;SDS011;9839;53.364;-1.204;2023-03-26T00:35:36;9.70;;;2.70;;
19406;SDS011;9839;53.364;-1.204;2023-03-26T00:38:02;19.57;;;4.60;;
19406;SDS011;9839;53.364;-1.204;2023-03-26T00:40:27;16.73;;;5.20;;
19406;SDS011;9839;53.364;-1.204;2023-03-26T00:42:54;11.47;;;5.00;;
19406;SDS011;9839;53.364;-1.204;2023-03-26T00:45:20;12.77;;;4.90;;
19406;SDS011;9839;53.364;-1.204;2023-03-26T00:47:46;17.83;;;4.80;;
19406;SDS011;9839;53.364;-1.204;2023-03-26T00:50:12;14.53;;;4.60;;
19406;SDS011;9839;53.364;-1.204;2023-03-26T00:52:42;19.97;;;4.73;;
19406;SDS011;9839;53.364;-1.204;2023-03-26T00:55:09;18.33;;;5.27;;
19406;SDS011;9839;53.364;-1.204;2023-03-26T00:57:34;19.90;;;6.20;;
19406;SDS011;9839;53.364;-1.204;2023-03-26T01:00:04;24.70;;;6.10;;
19406;SDS011;9839;53.364;-1.204;2023-03-26T01:02:35;24.37;;;7.00;;
19406;SDS011;9839;53.364;-1.204;2023-03-26T01:05:25;21.33;;;6.60;;
19406;SDS011;9839;53.364;-1.204;2023-03-26T01:10:42;14.83;;;6.00;;
19406;SDS011;9839;53.364;-1.204;2023-03-26T01:13:08;24.80;;;6.30;;
19406;SDS011;9839;53.364;-1.204;2023-03-26T01:15:34;15.47;;;4.63;;
19406;SDS011;9839;53.364;-1.204;2023-03-26T01:18:02;22.60;;;5.43;;
19406;SDS011;9839;53.364;-1.204;2023-03-26T01:20:29;19.37;;;5.30;;
19406;SDS011;9839;53.364;-1.204;2023-03-26T01:22:59;18.37;;;5.20;;
19406;SDS011;9839;53.364;-1.204;2023-03-26T01:25:30;16.57;;;5.20;;
19406;SDS011;9839;53.364;-1.204;2023-03-26T01:28:01;20.37;;;5.70;;
19406;SDS011;9839;53.364;-1.204;2023-03-26T01:30:33;19.50;;;5.70;;
19406;SDS011;9839;53.364;-1.204;2023-03-26T01:35:46;21.40;;;5.60;;
19406;SDS011;9839;53.364;-1.204;2023-03-26T01:41:00;17.90;;;3.20;;
19406;SDS011;9839;53.364;-1.204;2023-03-26T01:43:35;17.73;;;3.67;;
19406;SDS011;9839;53.364;-1.204;2023-03-26T01:46:05;10.83;;;3.40;;
19406;SDS011;9839;53.364;-1.204;2023-03-26T01:48:37;13.37;;;3.37;;
19406;SDS011;9839;53.364;-1.204;2023-03-26T01:51:04;16.60;;;3.27;;
19406;SDS011;9839;53.364;-1.204;2023-03-26T01:53:31;11.13;;;3.27;;
19406;SDS011;9839;53.364;-1.204;2023-03-26T02:01:26;14.00;;;3.10;;
19406;SDS011;9839;53.364;-1.204;2023-03-26T02:04:41;15.23;;;3.10;;
19406;SDS011;9839;53.364;-1.204;2023-03-26T02:06:50;11.77;;;2.33;;
19406;SDS011;9839;53.364;-1.204;2023-03-26T02:09:27;16.33;;;2.93;;
19406;SDS011;9839;53.364;-1.204;2023-03-26T02:11:55;15.30;;;2.80;;
19406;SDS011;9839;53.364;-1.204;2023-03-26T02:14:21;14.53;;;2.77;;
19406;SDS011;9839;53.364;-1.204;2023-03-26T02:16:46;12.17;;;2.40;;
19406;SDS011;9839;53.364;-1.204;2023-03-26T02:19:12;13.77;;;3.10;;
19406;SDS011;9839;53.364;-1.204;2023-03-26T02:21:45;20.57;;;2.47;;
19406;SDS011;9839;53.364;-1.204;2023-03-26T02:24:15;16.87;;;2.30;;
19406;SDS011;9839;53.364;-1.204;2023-03-26T02:26:40;16.03;;;3.07;;
19406;SDS011;9839;53.364;-1.204;2023-03-26T02:29:06;16.17;;;3.00;;
19406;SDS011;9839;53.364;-1.204;2023-03-26T02:31:31;15.53;;;2.57;;
19406;SDS011;9839;53.364;-1.204;2023-03-26T02:33:57;10.97;;;2.70;;
19406;SDS011;9839;53.364;-1.204;2023-03-26T02:36:23;18.37;;;2.63;;
19406;SDS011;9839;53.364;-1.204;2023-03-26T02:38:52;20.13;;;2.17;;
19406;SDS011;9839;53.364;-1.204;2023-03-26T02:41:18;21.87;;;3.27;;
19406;SDS011;9839;53.364;-1.204;2023-03-26T02:43:43;12.23;;;2.50;;
19406;SDS011;9839;53.364;-1.204;2023-03-26T02:46:09;22.87;;;2.80;;
19406;SDS011;9839;53.364;-1.204;2023-03-26T02:48:34;10.60;;;2.20;;
19406;SDS011;9839;53.364;-1.204;2023-03-26T02:51:00;15.97;;;2.93;;
19406;SDS011;9839;53.364;-1.204;2023-03-26T02:53:26;18.27;;;3.33;;
19406;SDS011;9839;53.364;-1.204;2023-03-26T02:55:58;15.97;;;3.37;;
19406;SDS011;9839;53.364;-1.204;2023-03-26T02:58:24;21.57;;;3.50;;
19406;SDS011;9839;53.364;-1.204;2023-03-26T03:00:53;17.63;;;3.83;;
19406;SDS011;9839;53.364;-1.204;2023-03-26T03:03:26;16.27;;;4.30;;
19406;SDS011;9839;53.364;-1.204;2023-03-26T03:05:52;23.60;;;4.67;;
19406;SDS011;9839;53.364;-1.204;2023-03-26T03:08:19;19.57;;;5.43;;
19406;SDS011;9839;53.364;-1.204;2023-03-26T03:13:42;17.67;;;6.70;;
19406;SDS011;9839;53.364;-1.204;2023-03-26T03:16:08;26.30;;;7.63;;
19406;SDS011;9839;53.364;-1.204;2023-03-26T03:18:34;21.83;;;8.27;;
19406;SDS011;9839;53.364;-1.204;2023-03-26T03:21:00;29.50;;;7.23;;
19406;SDS011;9839;53.364;-1.204;2023-03-26T03:23:27;32.83;;;6.77;;
19406;SDS011;9839;53.364;-1.204;2023-03-26T03:25:52;49.50;;;7.67;;
19406;SDS011;9839;53.364;-1.204;2023-03-26T03:28:21;27.57;;;6.07;;
19406;SDS011;9839;53.364;-1.204;2023-03-26T03:30:47;28.93;;;5.90;;
19406;SDS011;9839;53.364;-1.204;2023-03-26T03:33:17;23.97;;;5.77;;
19406;SDS011;9839;53.364;-1.204;2023-03-26T03:35:44;23.00;;;6.93;;
19406;SDS011;9839;53.364;-1.204;2023-03-26T03:38:11;28.27;;;7.03;;
19406;SDS011;9839;53.364;-1.204;2023-03-26T03:40:37;23.67;;;5.80;;
19406;SDS011;9839;53.364;-1.204;2023-03-26T03:43:03;24.43;;;6.57;;
19406;SDS011;9839;53.364;-1.204;2023-03-26T03:45:28;19.70;;;6.60;;
19406;SDS011;9839;53.364;-1.204;2023-03-26T03:47:53;22.20;;;6.77;;
19406;SDS011;9839;53.364;-1.204;2023-03-26T03:50:19;24.87;;;6.97;;
19406;SDS011;9839;53.364;-1.204;2023-03-26T03:52:45;24.73;;;5.90;;
19406;SDS011;9839;53.364;-1.204;2023-03-26T03:55:10;29.97;;;5.90;;
19406;SDS011;9839;53.364;-1.204;2023-03-26T03:57:38;29.57;;;6.03;;
19406;SDS011;9839;53.364;-1.204;2023-03-26T04:00:04;21.63;;;4.87;;
19406;SDS011;9839;53.364;-1.204;2023-03-26T04:02:33;18.03;;;5.10;;
19406;SDS011;9839;53.364;-1.204;2023-03-26T04:04:59;21.87;;;6.87;;
19406;SDS011;9839;53.364;-1.204;2023-03-26T04:07:25;23.70;;;5.23;;
19406;SDS011;9839;53.364;-1.204;2023-03-26T04:09:51;23.10;;;4.93;;
19406;SDS011;9839;53.364;-1.204;2023-03-26T04:12:17;14.87;;;3.77;;
19406;SDS011;9839;53.364;-1.204;2023-03-26T04:14:43;20.40;;;4.40;;
19406;SDS011;9839;53.364;-1.204;2023-03-26T04:17:08;22.43;;;4.10;;
19406;SDS011;9839;53.364;-1.204;2023-03-26T04:19:34;17.83;;;4.40;;
19406;SDS011;9839;53.364;-1.204;2023-03-26T04:21:59;22.03;;;5.43;;
19406;SDS011;9839;53.364;-1.204;2023-03-26T04:24:26;16.23;;;4.10;;
19406;SDS011;9839;53.364;-1.204;2023-03-26T04:26:52;16.53;;;4.77;;
19406;SDS011;9839;53.364;-1.204;2023-03-26T04:29:22;24.57;;;4.67;;
19406;SDS011;9839;53.364;-1.204;2023-03-26T04:31:53;16.50;;;4.70;;
19406;SDS011;9839;53.364;-1.204;2023-03-26T04:34:22;19.40;;;3.97;;
19406;SDS011;9839;53.364;-1.204;2023-03-26T04:36:49;16.87;;;3.70;;
19406;SDS011;9839;53.364;-1.204;2023-03-26T04:39:18;15.43;;;3.57;;
19406;SDS011;9839;53.364;-1.204;2023-03-26T04:41:45;17.27;;;2.90;;
19406;SDS011;9839;53.364;-1.204;2023-03-26T04:44:12;12.77;;;2.67;;
19406;SDS011;9839;53.364;-1.204;2023-03-26T04:46:41;12.97;;;2.63;;
19406;SDS011;9839;53.364;-1.204;2023-03-26T04:49:07;17.10;;;2.50;;
19406;SDS011;9839;53.364;-1.204;2023-03-26T04:51:37;15.87;;;2.77;;
19406;SDS011;9839;53.364;-1.204;2023-03-26T04:54:05;9.93;;;2.53;;
19406;SDS011;9839;53.364;-1.204;2023-03-26T04:59:24;19.50;;;2.07;;
19406;SDS011;9839;53.364;-1.204;2023-03-26T05:01:54;13.47;;;2.13;;
19406;SDS011;9839;53.364;-1.204;2023-03-26T05:04:22;11.60;;;1.97;;
19406;SDS011;9839;53.364;-1.204;2023-03-26T05:06:47;14.60;;;2.47;;
19406;SDS011;9839;53.364;-1.204;2023-03-26T05:09:13;13.60;;;2.23;;
19406;SDS011;9839;53.364;-1.204;2023-03-26T05:11:39;19.20;;;2.37;;
19406;SDS011;9839;53.364;-1.204;2023-03-26T05:14:05;14.10;;;2.33;;
19406;SDS011;9839;53.364;-1.204;2023-03-26T05:16:31;20.60;;;2.53;;
19406;SDS011;9839;53.364;-1.204;2023-03-26T05:18:57;15.13;;;2.33;;
19406;SDS011;9839;53.364;-1.204;2023-03-26T05:21:23;19.17;;;2.50;;
19406;SDS011;9839;53.364;-1.204;2023-03-26T05:23:48;19.50;;;2.27;;
19406;SDS011;9839;53.364;-1.204;2023-03-26T05:26:14;15.13;;;1.97;;
19406;SDS011;9839;53.364;-1.204;2023-03-26T05:28:39;13.43;;;2.77;;
19406;SDS011;9839;53.364;-1.204;2023-03-26T05:31:05;16.63;;;2.67;;
19406;SDS011;9839;53.364;-1.204;2023-03-26T05:33:32;26.77;;;2.77;;
19406;SDS011;9839;53.364;-1.204;2023-03-26T05:36:02;18.27;;;2.47;;
19406;SDS011;9839;53.364;-1.204;2023-03-26T05:38:29;14.37;;;2.10;;
19406;SDS011;9839;53.364;-1.204;2023-03-26T05:41:02;20.97;;;2.57;;
19406;SDS011;9839;53.364;-1.204;2023-03-26T05:43:30;20.00;;;2.30;;
19406;SDS011;9839;53.364;-1.204;2023-03-26T05:45:55;21.90;;;2.40;;
19406;SDS011;9839;53.364;-1.204;2023-03-26T05:48:21;9.80;;;2.13;;
19406;SDS011;9839;53.364;-1.204;2023-03-26T05:50:50;18.93;;;3.07;;
19406;SDS011;9839;53.364;-1.204;2023-03-26T05:53:17;15.17;;;1.93;;
19406;SDS011;9839;53.364;-1.204;2023-03-26T05:55:44;22.87;;;2.63;;
19406;SDS011;9839;53.364;-1.204;2023-03-26T05:58:32;17.83;;;2.27;;
19406;SDS011;9839;53.364;-1.204;2023-03-26T06:01:03;19.80;;;2.30;;
19406;SDS011;9839;53.364;-1.204;2023-03-26T06:03:34;13.60;;;2.53;;
19406;SDS011;9839;53.364;-1.204;2023-03-26T06:06:02;20.23;;;1.97;;
19406;SDS011;9839;53.364;-1.204;2023-03-26T06:08:28;10.10;;;1.73;;
19406;SDS011;9839;53.364;-1.204;2023-03-26T06:11:01;28.17;;;2.43;;
19406;SDS011;9839;53.364;-1.204;2023-03-26T06:13:28;19.03;;;2.30;;
19406;SDS011;9839;53.364;-1.204;2023-03-26T06:15:54;10.30;;;2.33;;
19406;SDS011;9839;53.364;-1.204;2023-03-26T06:18:22;21.97;;;3.30;;
19406;SDS011;9839;53.364;-1.204;2023-03-26T06:20:48;18.10;;;2.07;;
19406;SDS011;9839;53.364;-1.204;2023-03-26T06:23:15;13.33;;;2.07;;
19406;SDS011;9839;53.364;-1.204;2023-03-26T06:25:40;15.63;;;2.43;;
19406;SDS011;9839;53.364;-1.204;2023-03-26T06:28:08;21.10;;;2.43;;
19406;SDS011;9839;53.364;-1.204;2023-03-26T06:30:34;16.67;;;2.07;;
19406;SDS011;9839;53.364;-1.204;2023-03-26T06:32:59;14.80;;;2.20;;
19406;SDS011;9839;53.364;-1.204;2023-03-26T06:35:25;17.87;;;2.37;;
19406;SDS011;9839;53.364;-1.204;2023-03-26T06:37:51;11.20;;;2.40;;
19406;SDS011;9839;53.364;-1.204;2023-03-26T06:40:16;11.33;;;2.30;;
19406;SDS011;9839;53.364;-1.204;2023-03-26T06:42:41;12.97;;;2.40;;
19406;SDS011;9839;53.364;-1.204;2023-03-26T06:45:07;11.90;;;1.87;;
19406;SDS011;9839;53.364;-1.204;2023-03-26T06:47:33;18.93;;;2.17;;
19406;SDS011;9839;53.364;-1.204;2023-03-26T06:49:58;22.17;;;3.60;;
19406;SDS011;9839;53.364;-1.204;2023-03-26T06:52:24;18.20;;;2.23;;
19406;SDS011;9839;53.364;-1.204;2023-03-26T06:54:50;12.87;;;2.03;;
19406;SDS011;9839;53.364;-1.204;2023-03-26T06:57:15;18.07;;;2.80;;
19406;SDS011;9839;53.364;-1.204;2023-03-26T06:59:41;7.30;;;2.00;;
19406;SDS011;9839;53.364;-1.204;2023-03-26T07:02:06;13.63;;;2.00;;
19406;SDS011;9839;53.364;-1.204;2023-03-26T07:04:31;14.50;;;2.50;;
19406;SDS011;9839;53.364;-1.204;2023-03-26T07:06:57;14.23;;;1.70;;
19406;SDS011;9839;53.364;-1.204;2023-03-26T07:09:22;19.77;;;2.87;;
19406;SDS011;9839;53.364;-1.204;2023-03-26T07:11:49;21.93;;;2.20;;
19406;SDS011;9839;53.364;-1.204;2023-03-26T07:14:14;19.70;;;2.50;;
19406;SDS011;9839;53.364;-1.204;2023-03-26T07:16:40;19.00;;;3.03;;
19406;SDS011;9839;53.364;-1.204;2023-03-26T07:19:05;14.33;;;1.50;;
19406;SDS011;9839;53.364;-1.204;2023-03-26T07:21:31;12.63;;;2.57;;
19406;SDS011;9839;53.364;-1.204;2023-03-26T07:23:57;8.67;;;1.60;;
19406;SDS011;9839;53.364;-1.204;2023-03-26T07:36:56;18.00;;;2.40;;
19406;SDS011;9839;53.364;-1.204;2023-03-26T07:42:35;9.47;;;2.03;;
19406;SDS011;9839;53.364;-1.204;2023-03-26T07:45:16;9.00;;;1.60;;
19406;SDS011;9839;53.364;-1.204;2023-03-26T07:47:45;10.67;;;2.10;;
19406;SDS011;9839;53.364;-1.204;2023-03-26T07:50:17;13.40;;;1.70;;
19406;SDS011;9839;53.364;-1.204;2023-03-26T07:52:43;11.43;;;1.80;;
19406;SDS011;9839;53.364;-1.204;2023-03-26T07:55:13;16.40;;;2.03;;
19406;SDS011;9839;53.364;-1.204;2023-03-26T07:57:48;9.70;;;2.07;;
19406;SDS011;9839;53.364;-1.204;2023-03-26T08:32:26;11.87;;;1.90;;
19406;SDS011;9839;53.364;-1.204;2023-03-26T08:34:52;5.60;;;1.67;;
19406;SDS011;9839;53.364;-1.204;2023-03-26T08:37:18;15.60;;;2.00;;
19406;SDS011;9839;53.364;-1.204;2023-03-26T08:39:43;10.77;;;1.67;;
19406;SDS011;9839;53.364;-1.204;2023-03-26T08:47:38;12.53;;;1.70;;
19406;SDS011;9839;53.364;-1.204;2023-03-26T08:56:10;7.97;;;1.83;;
19406;SDS011;9839;53.364;-1.204;2023-03-26T09:22:16;13.73;;;2.23;;
19406;SDS011;9839;53.364;-1.204;2023-03-26T09:24:42;6.50;;;1.60;;
19406;SDS011;9839;53.364;-1.204;2023-03-26T09:30:18;8.27;;;2.00;;
19406;SDS011;9839;53.364;-1.204;2023-03-26T09:41:34;9.20;;;1.80;;
19406;SDS011;9839;53.364;-1.204;2023-03-26T09:48:52;6.43;;;1.70;;
19406;SDS011;9839;53.364;-1.204;2023-03-26T09:51:37;8.60;;;1.20;;
19406;SDS011;9839;53.364;-1.204;2023-03-26T10:03:30;6.03;;;1.13;;
19406;SDS011;9839;53.364;-1.204;2023-03-26T10:11:09;13.10;;;1.67;;
19406;SDS011;9839;53.364;-1.204;2023-03-26T10:27:33;14.23;;;1.70;;
19406;SDS011;9839;53.364;-1.204;2023-03-26T10:30:18;6.63;;;1.27;;
19406;SDS011;9839;53.364;-1.204;2023-03-26T10:35:43;6.63;;;1.20;;
19406;SDS011;9839;53.364;-1.204;2023-03-26T10:55:41;6.23;;;1.37;;
19406;SDS011;9839;53.364;-1.204;2023-03-26T11:00:41;6.47;;;1.30;;
19406;SDS011;9839;53.364;-1.204;2023-03-26T11:05:50;8.57;;;1.33;;
19406;SDS011;9839;53.364;-1.204;2023-03-26T11:08:19;6.13;;;1.20;;
19406;SDS011;9839;53.364;-1.204;2023-03-26T11:11:34;5.30;;;1.17;;
19406;SDS011;9839;53.364;-1.204;2023-03-26T11:19:30;11.93;;;1.63;;
19406;SDS011;9839;53.364;-1.204;2023-03-26T11:22:47;5.53;;;1.13;;
19406;SDS011;9839;53.364;-1.204;2023-03-26T11:32:59;7.37;;;1.47;;
19406;SDS011;9839;53.364;-1.204;2023-03-26T11:35:41;7.00;;;1.40;;
19406;SDS011;9839;53.364;-1.204;2023-03-26T11:38:12;6.57;;;1.00;;
19406;SDS011;9839;53.364;-1.204;2023-03-26T11:40:43;4.90;;;1.50;;
19406;SDS011;9839;53.364;-1.204;2023-03-26T11:43:14;12.40;;;2.43;;
19406;SDS011;9839;53.364;-1.204;2023-03-26T11:45:42;9.07;;;1.37;;
19406;SDS011;9839;53.364;-1.204;2023-03-26T11:48:13;8.77;;;1.80;;
19406;SDS011;9839;53.364;-1.204;2023-03-26T11:50:44;7.07;;;1.23;;
19406;SDS011;9839;53.364;-1.204;2023-03-26T11:53:30;7.50;;;1.60;;
19406;SDS011;9839;53.364;-1.204;2023-03-26T11:58:50;7.30;;;1.70;;
19406;SDS011;9839;53.364;-1.204;2023-03-26T12:01:21;7.57;;;1.30;;
19406;SDS011;9839;53.364;-1.204;2023-03-26T12:03:55;12.67;;;1.93;;
19406;SDS011;9839;53.364;-1.204;2023-03-26T12:06:23;9.83;;;1.27;;
19406;SDS011;9839;53.364;-1.204;2023-03-26T12:08:49;6.30;;;1.40;;
19406;SDS011;9839;53.364;-1.204;2023-03-26T12:11:15;4.27;;;1.10;;
19406;SDS011;9839;53.364;-1.204;2023-03-26T12:13:43;9.73;;;1.57;;
19406;SDS011;9839;53.364;-1.204;2023-03-26T12:16:16;3.47;;;1.37;;
19406;SDS011;9839;53.364;-1.204;2023-03-26T12:18:44;5.27;;;1.57;;
19406;SDS011;9839;53.364;-1.204;2023-03-26T12:21:15;7.10;;;1.20;;
19406;SDS011;9839;53.364;-1.204;2023-03-26T12:26:41;6.13;;;1.47;;
19406;SDS011;9839;53.364;-1.204;2023-03-26T12:29:14;6.43;;;1.20;;
19406;SDS011;9839;53.364;-1.204;2023-03-26T12:31:49;11.73;;;1.40;;
19406;SDS011;9839;53.364;-1.204;2023-03-26T12:34:17;5.90;;;1.33;;
19406;SDS011;9839;53.364;-1.204;2023-03-26T12:36:52;5.13;;;0.87;;
19406;SDS011;9839;53.364;-1.204;2023-03-26T12:39:28;8.70;;;1.40;;
19406;SDS011;9839;53.364;-1.204;2023-03-26T12:41:55;6.70;;;1.10;;
19406;SDS011;9839;53.364;-1.204;2023-03-26T12:47:05;9.57;;;2.03;;
19406;SDS011;9839;53.364;-1.204;2023-03-26T12:49:33;8.70;;;1.73;;
19406;SDS011;9839;53.364;-1.204;2023-03-26T12:55:05;4.07;;;0.83;;
19406;SDS011;9839;53.364;-1.204;2023-03-26T12:58:00;7.30;;;0.87;;
19406;SDS011;9839;53.364;-1.204;2023-03-26T13:24:22;8.07;;;1.60;;
19406;SDS011;9839;53.364;-1.204;2023-03-26T13:26:56;3.93;;;1.40;;
19406;SDS011;9839;53.364;-1.204;2023-03-26T13:38:13;9.97;;;1.33;;
19406;SDS011;9839;53.364;-1.204;2023-03-26T13:41:02;8.43;;;1.13;;
19406;SDS011;9839;53.364;-1.204;2023-03-26T13:43:42;2.67;;;1.03;;
19406;SDS011;9839;53.364;-1.204;2023-03-26T13:46:18;5.00;;;0.93;;
19406;SDS011;9839;53.364;-1.204;2023-03-26T13:49:29;4.07;;;1.00;;
19406;SDS011;9839;53.364;-1.204;2023-03-26T13:51:59;6.00;;;0.70;;
19406;SDS011;9839;53.364;-1.204;2023-03-26T13:54:33;3.23;;;0.97;;
19406;SDS011;9839;53.364;-1.204;2023-03-26T14:08:13;4.67;;;0.80;;
19406;SDS011;9839;53.364;-1.204;2023-03-26T14:10:47;9.73;;;1.20;;
19406;SDS011;9839;53.364;-1.204;2023-03-26T14:13:18;10.03;;;1.27;;
19406;SDS011;9839;53.364;-1.204;2023-03-26T14:15:50;5.63;;;0.90;;
19406;SDS011;9839;53.364;-1.204;2023-03-26T14:18:23;7.40;;;1.20;;
19406;SDS011;9839;53.364;-1.204;2023-03-26T14:29:09;4.37;;;1.13;;
19406;SDS011;9839;53.364;-1.204;2023-03-26T14:40:26;3.63;;;0.93;;
19406;SDS011;9839;53.364;-1.204;2023-03-26T14:51:18;8.53;;;1.00;;
19406;SDS011;9839;53.364;-1.204;2023-03-26T14:54:01;2.37;;;0.90;;
19406;SDS011;9839;53.364;-1.204;2023-03-26T14:59:21;4.17;;;1.13;;
19406;SDS011;9839;53.364;-1.204;2023-03-26T15:18:38;11.83;;;1.83;;
19406;SDS011;9839;53.364;-1.204;2023-03-26T15:43:13;6.80;;;1.17;;
19406;SDS011;9839;53.364;-1.204;2023-03-26T16:01:45;6.80;;;1.37;;
19406;SDS011;9839;53.364;-1.204;2023-03-26T16:04:43;8.77;;;1.30;;
19406;SDS011;9839;53.364;-1.204;2023-03-26T16:10:09;5.50;;;1.20;;
19406;SDS011;9839;53.364;-1.204;2023-03-26T16:12:45;3.37;;;1.20;;
19406;SDS011;9839;53.364;-1.204;2023-03-26T16:15:39;5.40;;;1.40;;
19406;SDS011;9839;53.364;-1.204;2023-03-26T16:28:35;3.57;;;1.23;;
19406;SDS011;9839;53.364;-1.204;2023-03-26T16:31:29;3.33;;;1.20;;
19406;SDS011;9839;53.364;-1.204;2023-03-26T16:36:36;10.97;;;1.80;;
19406;SDS011;9839;53.364;-1.204;2023-03-26T16:47:02;3.70;;;0.70;;
19406;SDS011;9839;53.364;-1.204;2023-03-26T17:01:41;5.97;;;2.27;;
19406;SDS011;9839;53.364;-1.204;2023-03-26T17:06:22;1.93;;;1.07;;
19406;SDS011;9839;53.364;-1.204;2023-03-26T17:09:04;4.87;;;1.30;;
19406;SDS011;9839;53.364;-1.204;2023-03-26T17:14:22;13.53;;;4.07;;
19406;SDS011;9839;53.364;-1.204;2023-03-26T17:25:43;9.60;;;2.17;;
19406;SDS011;9839;53.364;-1.204;2023-03-26T17:33:52;9.33;;;1.33;;
19406;SDS011;9839;53.364;-1.204;2023-03-26T17:41:14;3.33;;;1.30;;
19406;SDS011;9839;53.364;-1.204;2023-03-26T17:45:00;7.03;;;1.57;;
19406;SDS011;9839;53.364;-1.204;2023-03-26T17:47:01;6.23;;;1.07;;
19406;SDS011;9839;53.364;-1.204;2023-03-26T17:49:30;9.60;;;2.40;;
19406;SDS011;9839;53.364;-1.204;2023-03-26T17:54:38;5.00;;;1.20;;
19406;SDS011;9839;53.364;-1.204;2023-03-26T18:00:14;7.43;;;1.70;;
19406;SDS011;9839;53.364;-1.204;2023-03-26T18:02:44;7.17;;;1.40;;
19406;SDS011;9839;53.364;-1.204;2023-03-26T18:05:13;6.43;;;1.93;;
19406;SDS011;9839;53.364;-1.204;2023-03-26T18:18:21;9.37;;;2.27;;
19406;SDS011;9839;53.364;-1.204;2023-03-26T18:20:50;8.20;;;1.77;;
19406;SDS011;9839;53.364;-1.204;2023-03-26T18:23:24;9.33;;;2.10;;
19406;SDS011;9839;53.364;-1.204;2023-03-26T18:25:57;6.50;;;1.30;;
19406;SDS011;9839;53.364;-1.204;2023-03-26T18:28:34;8.47;;;1.20;;
19406;SDS011;9839;53.364;-1.204;2023-03-26T18:31:08;8.47;;;1.53;;
19406;SDS011;9839;53.364;-1.204;2023-03-26T18:33:47;3.87;;;1.53;;
19406;SDS011;9839;53.364;-1.204;2023-03-26T18:36:14;7.83;;;1.27;;
19406;SDS011;9839;53.364;-1.204;2023-03-26T18:38:40;5.60;;;1.67;;
19406;SDS011;9839;53.364;-1.204;2023-03-26T18:41:08;3.70;;;1.63;;
19406;SDS011;9839;53.364;-1.204;2023-03-26T18:43:45;5.60;;;1.87;;
19406;SDS011;9839;53.364;-1.204;2023-03-26T18:46:11;10.47;;;1.90;;
19406;SDS011;9839;53.364;-1.204;2023-03-26T18:48:37;10.37;;;1.40;;
19406;SDS011;9839;53.364;-1.204;2023-03-26T18:51:03;4.90;;;1.37;;
19406;SDS011;9839;53.364;-1.204;2023-03-26T18:53:30;6.57;;;1.33;;
19406;SDS011;9839;53.364;-1.204;2023-03-26T18:56:01;6.27;;;1.67;;
19406;SDS011;9839;53.364;-1.204;2023-03-26T19:01:03;11.10;;;1.50;;
19406;SDS011;9839;53.364;-1.204;2023-03-26T19:03:31;6.27;;;1.80;;
19406;SDS011;9839;53.364;-1.204;2023-03-26T19:05:59;3.40;;;1.10;;
19406;SDS011;9839;53.364;-1.204;2023-03-26T19:08:26;3.50;;;1.07;;
19406;SDS011;9839;53.364;-1.204;2023-03-26T19:10:52;5.63;;;1.10;;
19406;SDS011;9839;53.364;-1.204;2023-03-26T19:13:19;7.00;;;1.77;;
19406;SDS011;9839;53.364;-1.204;2023-03-26T19:15:45;7.63;;;1.90;;
19406;SDS011;9839;53.364;-1.204;2023-03-26T19:18:14;3.70;;;1.30;;
19406;SDS011;9839;53.364;-1.204;2023-03-26T19:20:43;6.77;;;1.70;;
19406;SDS011;9839;53.364;-1.204;2023-03-26T19:23:11;4.17;;;1.50;;
19406;SDS011;9839;53.364;-1.204;2023-03-26T19:25:40;5.67;;;1.50;;
19406;SDS011;9839;53.364;-1.204;2023-03-26T19:28:13;5.10;;;1.30;;
19406;SDS011;9839;53.364;-1.204;2023-03-26T19:30:43;10.83;;;1.40;;
19406;SDS011;9839;53.364;-1.204;2023-03-26T19:33:16;11.80;;;2.03;;
19406;SDS011;9839;53.364;-1.204;2023-03-26T19:35:44;6.00;;;1.20;;
19406;SDS011;9839;53.364;-1.204;2023-03-26T19:40:45;4.40;;;0.93;;
19406;SDS011;9839;53.364;-1.204;2023-03-26T19:43:11;4.40;;;1.10;;
19406;SDS011;9839;53.364;-1.204;2023-03-26T19:45:37;5.97;;;1.37;;
19406;SDS011;9839;53.364;-1.204;2023-03-26T19:48:05;7.77;;;1.93;;
19406;SDS011;9839;53.364;-1.204;2023-03-26T19:50:32;8.97;;;2.20;;
19406;SDS011;9839;53.364;-1.204;2023-03-26T19:53:10;10.83;;;3.30;;
19406;SDS011;9839;53.364;-1.204;2023-03-26T19:56:08;11.43;;;2.80;;
19406;SDS011;9839;53.364;-1.204;2023-03-26T19:58:37;8.33;;;2.33;;
19406;SDS011;9839;53.364;-1.204;2023-03-26T20:01:04;3.67;;;1.63;;
19406;SDS011;9839;53.364;-1.204;2023-03-26T20:03:38;8.47;;;1.90;;
19406;SDS011;9839;53.364;-1.204;2023-03-26T20:06:05;6.23;;;1.37;;
19406;SDS011;9839;53.364;-1.204;2023-03-26T20:08:33;3.37;;;1.50;;
19406;SDS011;9839;53.364;-1.204;2023-03-26T20:10:58;7.43;;;1.50;;
19406;SDS011;9839;53.364;-1.204;2023-03-26T20:13:24;4.47;;;1.63;;
19406;SDS011;9839;53.364;-1.204;2023-03-26T20:15:57;9.67;;;2.70;;
19406;SDS011;9839;53.364;-1.204;2023-03-26T20:18:27;8.70;;;2.33;;
19406;SDS011;9839;53.364;-1.204;2023-03-26T20:20:53;11.47;;;2.30;;
19406;SDS011;9839;53.364;-1.204;2023-03-26T20:23:19;11.33;;;1.50;;
19406;SDS011;9839;53.364;-1.204;2023-03-26T20:25:45;6.77;;;1.00;;
19406;SDS011;9839;53.364;-1.204;2023-03-26T20:28:17;11.37;;;1.70;;
19406;SDS011;9839;53.364;-1.204;2023-03-26T20:30:43;3.70;;;1.13;;
19406;SDS011;9839;53.364;-1.204;2023-03-26T20:33:14;5.80;;;1.10;;
19406;SDS011;9839;53.364;-1.204;2023-03-26T20:35:42;4.90;;;1.20;;
19406;SDS011;9839;53.364;-1.204;2023-03-26T20:38:08;8.60;;;2.07;;
19406;SDS011;9839;53.364;-1.204;2023-03-26T20:40:34;12.43;;;2.20;;
19406;SDS011;9839;53.364;-1.204;2023-03-26T20:42:59;5.40;;;1.70;;
19406;SDS011;9839;53.364;-1.204;2023-03-26T20:45:25;8.07;;;2.20;;
19406;SDS011;9839;53.364;-1.204;2023-03-26T20:47:50;4.67;;;2.03;;
19406;SDS011;9839;53.364;-1.204;2023-03-26T20:50:18;8.63;;;2.47;;
19406;SDS011;9839;53.364;-1.204;2023-03-26T20:52:46;6.77;;;2.30;;
19406;SDS011;9839;53.364;-1.204;2023-03-26T20:55:12;3.53;;;1.17;;
19406;SDS011;9839;53.364;-1.204;2023-03-26T20:57:39;8.77;;;1.73;;
19406;SDS011;9839;53.364;-1.204;2023-03-26T21:00:05;7.20;;;1.83;;
19406;SDS011;9839;53.364;-1.204;2023-03-26T21:02:43;8.37;;;1.83;;
19406;SDS011;9839;53.364;-1.204;2023-03-26T21:05:09;8.07;;;1.00;;
19406;SDS011;9839;53.364;-1.204;2023-03-26T21:07:39;12.77;;;1.50;;
19406;SDS011;9839;53.364;-1.204;2023-03-26T21:10:09;8.47;;;1.50;;
19406;SDS011;9839;53.364;-1.204;2023-03-26T21:12:38;5.43;;;1.20;;
19406;SDS011;9839;53.364;-1.204;2023-03-26T21:15:07;4.93;;;1.10;;
19406;SDS011;9839;53.364;-1.204;2023-03-26T21:17:34;6.60;;;0.83;;
19406;SDS011;9839;53.364;-1.204;2023-03-26T21:20:00;4.07;;;1.40;;
19406;SDS011;9839;53.364;-1.204;2023-03-26T21:22:40;4.43;;;1.20;;
19406;SDS011;9839;53.364;-1.204;2023-03-26T21:25:22;3.80;;;1.23;;
19406;SDS011;9839;53.364;-1.204;2023-03-26T21:28:13;6.20;;;1.43;;
19406;SDS011;9839;53.364;-1.204;2023-03-26T21:30:47;4.17;;;1.30;;
19406;SDS011;9839;53.364;-1.204;2023-03-26T21:33:13;5.93;;;1.20;;
19406;SDS011;9839;53.364;-1.204;2023-03-26T21:35:38;9.37;;;1.20;;
19406;SDS011;9839;53.364;-1.204;2023-03-26T21:38:05;7.27;;;1.57;;
19406;SDS011;9839;53.364;-1.204;2023-03-26T21:40:33;5.57;;;1.23;;